Weather at Spring Hill Airport

Public forecast

Using degrees Fahrenheit for public forecast. Weather courtesy of forecast.io.

Closest aviation weather report (METAR) to Spring Hill Airport

Closest report is Salisbury Ocean City Wicomico Regional Airport, 8.7 nm (16.2 km) SE. Retrieved 2021/06/13 16:54 UTC (23 minutes ago):

KSBY 131654Z 14004KT 10SM SCT035 27/18 A2992 RMK AO2 SLP134 T02670178

Closest aviation forecast (TAF) to Spring Hill Airport

Closest forecast is Salisbury Ocean City Wicomico Regional Airport, 8.7 nm (16.2 km) SE. Retrieved 2021/06/13 12:22 UTC (5 hours ago):

TAF KSBY 131120Z 1312/1412 06003KT P6SM SCT004 SCT015 TEMPO 1312/1314 3SM BR OVC004 FM131500 13005KT P6SM SCT040 FM131900 14007KT P6SM SCT050 FM140400 14002KT 4SM BR BKN100 FM140600 15002KT 2SM BR BKN008 FM141000 15002KT P6SM BKN020